Time;durP1;ratioP1;P1;durP2;ratioP2;P2;SDS_P1;SDS_P2;PMS_P1;PMS_P2;Temp;Humidity;BMP_temperature;BMP_pressure;BME280_temperature;BME280_humidity;BME280_pressure;Samples;Min_cycle;Max_cycle;Signal;HPM_P1;HPM_P2
2023/06/04 00:01:52;;;;;;;12.60;6.13;;;;;;;;;;4950693;28;20062;-63
2023/06/04 00:04:23;;;;;;;14.48;5.88;;;;;;;;;;4970587;28;20070;-63
2023/06/04 00:06:55;;;;;;;15.02;5.65;;;;;;;;;;4979890;28;20062;-63
2023/06/04 00:09:25;;;;;;;12.52;5.90;;;;;;;;;;4990089;28;20055;-64
2023/06/04 00:11:55;;;;;;;10.75;5.03;;;;;;;;;;4990157;28;20062;-63
2023/06/04 00:14:27;;;;;;;12.73;5.30;;;;;;;;;;4970338;28;20047;-63
2023/06/04 00:16:57;;;;;;;13.25;5.18;;;;;;;;;;4970630;28;20215;-63
2023/06/04 00:19:28;;;;;;;12.82;5.32;;;;;;;;;;4970512;28;20495;-63
2023/06/04 00:21:58;;;;;;;15.00;5.70;;;;;;;;;;4954336;28;20050;-64
2023/06/04 00:24:28;;;;;;;12.55;5.63;;;;;;;;;;4970555;28;20403;-63
2023/06/04 00:26:58;;;;;;;11.18;5.13;;;;;;;;;;4953905;28;20063;-63
2023/06/04 00:29:29;;;;;;;13.15;5.78;;;;;;;;;;4938707;28;20055;-64
2023/06/04 00:31:59;;;;;;;16.58;6.00;;;;;;;;;;4960983;28;20543;-63
2023/06/04 00:34:30;;;;;;;16.73;5.72;;;;;;;;;;4960337;28;20388;-63
2023/06/04 00:37:01;;;;;;;13.27;5.82;;;;;;;;;;4941309;28;20053;-63
2023/06/04 00:39:32;;;;;;;13.70;5.93;;;;;;;;;;4981822;28;20065;-63
2023/06/04 00:42:02;;;;;;;15.50;5.72;;;;;;;;;;4957057;28;20050;-63
2023/06/04 00:44:33;;;;;;;16.85;6.20;;;;;;;;;;4989832;28;20511;-63
2023/06/04 00:47:04;;;;;;;18.35;6.82;;;;;;;;;;4989394;28;20054;-64
2023/06/04 00:49:35;;;;;;;12.35;6.18;;;;;;;;;;4970049;28;20043;-63
2023/06/04 00:52:05;;;;;;;14.38;6.00;;;;;;;;;;4956151;28;20054;-63
2023/06/04 00:54:37;;;;;;;12.23;6.05;;;;;;;;;;4969640;28;20049;-64
2023/06/04 00:57:11;;;;;;;11.07;5.53;;;;;;;;;;4970365;28;20066;-63
2023/06/04 00:59:41;;;;;;;15.63;5.50;;;;;;;;;;4937984;28;20058;-63
2023/06/04 01:02:22;;;;;;;19.13;6.03;;;;;;;;;;4969606;28;20554;-63
2023/06/04 01:05:12;;;;;;;15.70;5.80;;;;;;;;;;4970237;28;20062;-63
2023/06/04 01:07:46;;;;;;;13.25;6.13;;;;;;;;;;4970170;28;20086;-62
2023/06/04 01:10:17;;;;;;;13.98;6.03;;;;;;;;;;4989242;28;20055;-63
2023/06/04 01:12:48;;;;;;;15.27;5.90;;;;;;;;;;4969757;28;20051;-62
2023/06/04 01:15:18;;;;;;;13.63;6.32;;;;;;;;;;4921961;28;20043;-63
2023/06/04 01:17:57;;;;;;;13.35;6.10;;;;;;;;;;4916965;29;20060;-63
2023/06/04 01:20:46;;;;;;;12.77;6.13;;;;;;;;;;4927949;29;20048;-63
2023/06/04 01:23:39;;;;;;;15.25;6.00;;;;;;;;;;4880719;29;20136;-63
2023/06/04 01:26:10;;;;;;;13.43;5.50;;;;;;;;;;4896168;29;20090;-63
2023/06/04 01:28:43;;;;;;;14.85;6.13;;;;;;;;;;4896836;29;20115;-63
2023/06/04 01:31:13;;;;;;;16.52;6.30;;;;;;;;;;4898876;29;20068;-63
2023/06/04 01:33:44;;;;;;;13.63;6.40;;;;;;;;;;4914841;29;20056;-64
2023/06/04 01:36:15;;;;;;;13.52;6.07;;;;;;;;;;4930886;29;20059;-63
2023/06/04 01:38:46;;;;;;;17.38;6.63;;;;;;;;;;4933552;29;20072;-63
2023/06/04 01:41:16;;;;;;;14.35;6.32;;;;;;;;;;4935022;29;20051;-63
2023/06/04 01:43:48;;;;;;;14.15;6.53;;;;;;;;;;4919498;29;20051;-63
2023/06/04 01:46:18;;;;;;;15.85;6.13;;;;;;;;;;4887741;29;20126;-63
2023/06/04 01:48:48;;;;;;;15.27;6.10;;;;;;;;;;4915550;29;20063;-63
2023/06/04 01:51:19;;;;;;;14.52;6.05;;;;;;;;;;4904381;29;20051;-63
2023/06/04 01:53:50;;;;;;;16.25;6.32;;;;;;;;;;4953713;29;20062;-63
2023/06/04 01:56:21;;;;;;;22.38;7.15;;;;;;;;;;4954084;28;20565;-62
2023/06/04 01:58:51;;;;;;;12.50;6.00;;;;;;;;;;4934135;29;20051;-63
2023/06/04 02:01:22;;;;;;;16.42;6.78;;;;;;;;;;4934434;29;20060;-63
2023/06/04 02:03:52;;;;;;;17.02;6.43;;;;;;;;;;4918328;29;20136;-65
2023/06/04 02:06:24;;;;;;;16.17;6.72;;;;;;;;;;4915323;29;20509;-63
2023/06/04 02:08:54;;;;;;;14.63;6.88;;;;;;;;;;4915495;29;20055;-63
2023/06/04 02:11:26;;;;;;;15.93;7.00;;;;;;;;;;4900210;29;20468;-63
2023/06/04 02:13:56;;;;;;;15.30;6.75;;;;;;;;;;4905781;29;20068;-63
2023/06/04 02:16:28;;;;;;;16.67;6.38;;;;;;;;;;4896689;29;20053;-63
2023/06/04 02:18:59;;;;;;;17.27;6.45;;;;;;;;;;4896603;29;20174;-63
2023/06/04 02:21:29;;;;;;;15.77;6.60;;;;;;;;;;4896217;29;20509;-63
2023/06/04 02:23:59;;;;;;;17.15;6.45;;;;;;;;;;4896315;29;20052;-64
2023/06/04 02:26:30;;;;;;;17.52;6.07;;;;;;;;;;4880138;29;20127;-63
2023/06/04 02:29:01;;;;;;;13.15;6.68;;;;;;;;;;4896241;29;20548;-63
2023/06/04 02:31:31;;;;;;;14.57;6.38;;;;;;;;;;4871848;29;20064;-63
2023/06/04 02:34:03;;;;;;;13.95;6.38;;;;;;;;;;4896024;29;20059;-63
2023/06/04 02:36:34;;;;;;;16.42;6.55;;;;;;;;;;4915531;29;20068;-63
2023/06/04 02:39:04;;;;;;;15.95;6.85;;;;;;;;;;4939923;29;20055;-63
2023/06/04 02:41:34;;;;;;;15.50;6.88;;;;;;;;;;4933817;29;20062;-63
2023/06/04 02:44:05;;;;;;;14.27;6.60;;;;;;;;;;4933934;29;20055;-63
2023/06/04 02:46:37;;;;;;;15.00;6.32;;;;;;;;;;4902799;29;20063;-63
2023/06/04 02:49:07;;;;;;;13.80;5.97;;;;;;;;;;4932976;29;20059;-63
2023/06/04 02:51:38;;;;;;;17.58;6.93;;;;;;;;;;4939758;29;20130;-63
2023/06/04 02:54:09;;;;;;;15.40;6.88;;;;;;;;;;4914722;29;20060;-63
2023/06/04 02:56:43;;;;;;;13.85;6.05;;;;;;;;;;4914854;29;20059;-64
2023/06/04 02:59:13;;;;;;;16.42;7.28;;;;;;;;;;4907046;29;20095;-63
2023/06/04 03:01:44;;;;;;;15.63;6.15;;;;;;;;;;4952517;29;20134;-63
2023/06/04 03:04:15;;;;;;;21.00;6.28;;;;;;;;;;4952678;29;20062;-63
2023/06/04 03:06:46;;;;;;;12.88;5.95;;;;;;;;;;4973664;28;20059;-63
2023/06/04 03:09:16;;;;;;;15.27;6.25;;;;;;;;;;4959031;28;20515;-63
2023/06/04 03:11:46;;;;;;;14.55;6.13;;;;;;;;;;4980843;28;20055;-64
2023/06/04 03:14:17;;;;;;;16.42;6.75;;;;;;;;;;4971953;28;20050;-64
2023/06/04 03:16:48;;;;;;;17.90;6.63;;;;;;;;;;4972197;28;20418;-63
2023/06/04 03:19:19;;;;;;;13.73;6.55;;;;;;;;;;4934300;28;20171;-63
2023/06/04 03:21:50;;;;;;;14.10;5.90;;;;;;;;;;5010461;28;20053;-63
2023/06/04 03:24:21;;;;;;;12.18;5.80;;;;;;;;;;5026558;28;20057;-63
2023/06/04 03:26:51;;;;;;;13.85;6.28;;;;;;;;;;4978304;28;20526;-63
2023/06/04 03:29:21;;;;;;;15.38;7.00;;;;;;;;;;5010395;28;20046;-63
2023/06/04 03:31:51;;;;;;;15.30;6.57;;;;;;;;;;5010404;28;20065;-65
2023/06/04 03:34:25;;;;;;;14.45;6.25;;;;;;;;;;5010126;28;20548;-63
2023/06/04 03:36:55;;;;;;;16.88;6.20;;;;;;;;;;4979548;28;20061;-63
2023/06/04 03:39:26;;;;;;;13.18;6.65;;;;;;;;;;4999111;28;20058;-63
2023/06/04 03:41:57;;;;;;;11.75;5.85;;;;;;;;;;4961098;28;20055;-63
2023/06/04 03:44:28;;;;;;;14.82;5.97;;;;;;;;;;4952004;29;20051;-63
2023/06/04 03:46:59;;;;;;;13.63;6.32;;;;;;;;;;4974051;28;20530;-63
2023/06/04 03:49:30;;;;;;;12.43;5.57;;;;;;;;;;4958065;28;20050;-63
2023/06/04 03:52:01;;;;;;;15.15;6.53;;;;;;;;;;4990578;28;20065;-63
2023/06/04 03:54:32;;;;;;;12.27;5.75;;;;;;;;;;4935643;29;20039;-63
2023/06/04 03:57:03;;;;;;;13.30;6.00;;;;;;;;;;4951650;28;20058;-63
2023/06/04 03:59:33;;;;;;;14.43;5.90;;;;;;;;;;4915262;29;20055;-63
2023/06/04 04:02:05;;;;;;;14.27;5.65;;;;;;;;;;4951080;28;20543;-63
2023/06/04 04:04:35;;;;;;;13.27;5.60;;;;;;;;;;4932045;29;20055;-64
2023/06/04 04:07:05;;;;;;;13.52;6.30;;;;;;;;;;4942514;28;20060;-64
2023/06/04 04:09:36;;;;;;;15.05;6.28;;;;;;;;;;4951416;28;20051;-63
2023/06/04 04:12:06;;;;;;;14.90;6.47;;;;;;;;;;4931995;29;20055;-63
2023/06/04 04:14:37;;;;;;;15.30;6.30;;;;;;;;;;4931987;29;20640;-63
2023/06/04 04:17:07;;;;;;;11.57;5.63;;;;;;;;;;4856847;29;20067;-63
2023/06/04 04:19:37;;;;;;;12.77;5.47;;;;;;;;;;4884933;29;20406;-63
2023/06/04 04:22:11;;;;;;;16.23;5.60;;;;;;;;;;4899469;29;20063;-63
2023/06/04 04:24:41;;;;;;;11.07;4.95;;;;;;;;;;4902111;29;20044;-64
2023/06/04 04:27:12;;;;;;;14.85;5.65;;;;;;;;;;4903618;29;20059;-63
2023/06/04 04:29:47;;;;;;;14.63;5.45;;;;;;;;;;4893782;29;20172;-63
2023/06/04 04:32:22;;;;;;;15.65;5.65;;;;;;;;;;4893830;29;20060;-63
2023/06/04 04:34:55;;;;;;;12.18;5.63;;;;;;;;;;4893669;29;20064;-63
2023/06/04 04:37:30;;;;;;;17.48;6.05;;;;;;;;;;4870903;29;20057;-63
2023/06/04 04:40:01;;;;;;;14.43;6.20;;;;;;;;;;4826668;29;20176;-63
2023/06/04 04:42:33;;;;;;;15.50;5.50;;;;;;;;;;4849241;29;20050;-63
2023/06/04 04:45:06;;;;;;;10.80;4.47;;;;;;;;;;4856702;29;20169;-63
2023/06/04 04:47:37;;;;;;;10.63;5.60;;;;;;;;;;4856244;29;20060;-63
2023/06/04 04:50:07;;;;;;;13.00;5.32;;;;;;;;;;4856548;29;20053;-63
2023/06/04 04:52:38;;;;;;;11.00;5.15;;;;;;;;;;4856351;29;20049;-63
2023/06/04 04:55:09;;;;;;;15.23;6.20;;;;;;;;;;4856169;29;20075;-64
2023/06/04 04:57:40;;;;;;;10.65;5.30;;;;;;;;;;4856493;29;20062;-63
2023/06/04 05:00:11;;;;;;;10.07;4.72;;;;;;;;;;4825969;29;20605;-63
2023/06/04 05:02:44;;;;;;;14.30;4.88;;;;;;;;;;4807681;29;20066;-63
2023/06/04 05:05:16;;;;;;;10.95;5.10;;;;;;;;;;4811008;29;20058;-63
2023/06/04 05:07:49;;;;;;;12.10;5.40;;;;;;;;;;4825580;29;20065;-63
2023/06/04 05:10:22;;;;;;;10.95;4.82;;;;;;;;;;4819903;29;20054;-63
2023/06/04 05:13:04;;;;;;;15.80;5.55;;;;;;;;;;4820359;29;20062;-63
2023/06/04 05:15:43;;;;;;;13.32;5.03;;;;;;;;;;4823408;29;20054;-63
2023/06/04 05:18:20;;;;;;;10.80;4.82;;;;;;;;;;4805142;29;20412;-63
2023/06/04 05:20:51;;;;;;;11.93;5.35;;;;;;;;;;4818244;29;20050;-64
2023/06/04 05:23:21;;;;;;;9.82;4.97;;;;;;;;;;4836558;29;20066;-64
2023/06/04 05:25:52;;;;;;;11.23;5.38;;;;;;;;;;4859696;29;20066;-63
2023/06/04 05:28:25;;;;;;;12.77;5.05;;;;;;;;;;4868454;29;20057;-63
2023/06/04 05:30:58;;;;;;;10.98;5.35;;;;;;;;;;4893230;29;20069;-63
2023/06/04 05:33:33;;;;;;;12.88;5.45;;;;;;;;;;4903122;29;20497;-63
2023/06/04 05:36:08;;;;;;;11.68;4.50;;;;;;;;;;4915674;29;20063;-63
2023/06/04 05:38:44;;;;;;;14.55;4.40;;;;;;;;;;4930589;29;20074;-64
2023/06/04 05:41:17;;;;;;;10.50;5.05;;;;;;;;;;4911686;29;20053;-63
2023/06/04 05:43:47;;;;;;;12.85;4.60;;;;;;;;;;4850116;29;20053;-65
2023/06/04 05:46:18;;;;;;;10.18;4.65;;;;;;;;;;4877645;29;20052;-64
2023/06/04 05:48:50;;;;;;;15.82;5.32;;;;;;;;;;4863148;29;20062;-63
2023/06/04 05:51:21;;;;;;;;;;;;;;;;;;4829630;29;20050;-63
2023/06/04 05:53:52;;;;;;;11.15;5.10;;;;;;;;;;4859088;29;19924;-63
2023/06/04 05:56:22;;;;;;;12.38;4.43;;;;;;;;;;4847094;29;20050;-64
2023/06/04 05:58:53;;;;;;;11.25;4.75;;;;;;;;;;4835897;29;20079;-63
2023/06/04 06:01:25;;;;;;;12.18;4.97;;;;;;;;;;4858733;29;20057;-63
2023/06/04 06:03:56;;;;;;;11.90;5.30;;;;;;;;;;4853671;29;20467;-63
2023/06/04 06:06:28;;;;;;;;;;;;;;;;;;4877924;29;20057;-62
2023/06/04 06:08:58;;;;;;;11.30;4.72;;;;;;;;;;4877703;29;20300;-63
2023/06/04 06:11:29;;;;;;;13.18;5.15;;;;;;;;;;4854781;29;20062;-63
2023/06/04 06:13:59;;;;;;;12.10;5.25;;;;;;;;;;4871577;29;20411;-64
2023/06/04 06:16:29;;;;;;;10.20;4.55;;;;;;;;;;4855333;29;20057;-63
2023/06/04 06:19:01;;;;;;;15.35;5.30;;;;;;;;;;4840102;29;20061;-63
2023/06/04 06:21:31;;;;;;;12.15;4.82;;;;;;;;;;4817948;29;20059;-63
2023/06/04 06:24:02;;;;;;;13.52;5.22;;;;;;;;;;4829989;29;20062;-63
2023/06/04 06:26:33;;;;;;;15.85;5.10;;;;;;;;;;4839873;29;20507;-63
2023/06/04 06:29:05;;;;;;;10.23;3.85;;;;;;;;;;4848514;29;20050;-62
2023/06/04 06:31:35;;;;;;;9.27;4.63;;;;;;;;;;4849310;29;20050;-63
2023/06/04 06:34:06;;;;;;;15.50;4.75;;;;;;;;;;4830991;29;20526;-63
2023/06/04 06:36:36;;;;;;;12.38;4.45;;;;;;;;;;4797595;29;20069;-63
2023/06/04 06:39:06;;;;;;;11.95;4.72;;;;;;;;;;4836630;29;20058;-63
2023/06/04 06:41:39;;;;;;;11.65;4.57;;;;;;;;;;4831346;29;20066;-63
2023/06/04 06:44:14;;;;;;;11.98;4.80;;;;;;;;;;4854476;29;20058;-63
2023/06/04 06:46:44;;;;;;;12.05;4.80;;;;;;;;;;4840087;29;20546;-63
2023/06/04 06:49:16;;;;;;;9.48;4.32;;;;;;;;;;4887831;29;20055;-63
2023/06/04 06:51:46;;;;;;;11.95;5.00;;;;;;;;;;4915021;29;20067;-63
2023/06/04 06:54:17;;;;;;;9.68;4.40;;;;;;;;;;4888104;29;20056;-62
2023/06/04 06:56:50;;;;;;;13.43;4.75;;;;;;;;;;4899818;29;20417;-63
2023/06/04 06:59:20;;;;;;;;;;;;;;;;;;4949634;29;20051;-63
2023/06/04 07:01:51;;;;;;;12.77;4.80;;;;;;;;;;4900083;29;19930;-63
2023/06/04 07:04:22;;;;;;;10.10;4.57;;;;;;;;;;4929868;29;20056;-63
2023/06/04 07:06:52;;;;;;;11.90;4.97;;;;;;;;;;4893266;29;20056;-62
2023/06/04 07:09:22;;;;;;;11.70;5.10;;;;;;;;;;4954139;28;20058;-63
2023/06/04 07:11:52;;;;;;;13.20;5.30;;;;;;;;;;4972055;28;20063;-62
2023/06/04 07:14:22;;;;;;;11.30;4.72;;;;;;;;;;4971861;28;20066;-63
2023/06/04 07:16:53;;;;;;;13.02;5.10;;;;;;;;;;4972141;28;20058;-62
2023/06/04 07:19:23;;;;;;;13.15;5.18;;;;;;;;;;4923582;28;20047;-62
2023/06/04 07:21:55;;;;;;;15.20;6.07;;;;;;;;;;4971648;28;20058;-62
2023/06/04 07:24:26;;;;;;;11.52;5.43;;;;;;;;;;4975485;28;20054;-63
2023/06/04 07:26:57;;;;;;;13.23;4.72;;;;;;;;;;4991346;28;20070;-62
2023/06/04 07:29:27;;;;;;;10.88;5.45;;;;;;;;;;4942534;28;20628;-64
2023/06/04 07:31:57;;;;;;;10.52;4.68;;;;;;;;;;4953947;28;20061;-63
2023/06/04 07:34:27;;;;;;;14.18;5.18;;;;;;;;;;4993769;28;20065;-62
2023/06/04 07:36:59;;;;;;;11.40;4.72;;;;;;;;;;5010239;28;20053;-62
2023/06/04 07:39:29;;;;;;;17.15;5.22;;;;;;;;;;5010273;28;20402;-62
2023/06/04 07:41:59;;;;;;;11.77;5.05;;;;;;;;;;4977701;28;20053;-63
2023/06/04 07:44:30;;;;;;;15.05;5.32;;;;;;;;;;5010277;28;20041;-63
2023/06/04 07:47:00;;;;;;;12.25;5.00;;;;;;;;;;4987372;28;21136;-62
2023/06/04 07:49:31;;;;;;;12.32;4.90;;;;;;;;;;5029866;28;20052;-63
2023/06/04 07:52:01;;;;;;;12.90;5.07;;;;;;;;;;5030194;28;20054;-63
2023/06/04 07:54:33;;;;;;;14.63;5.18;;;;;;;;;;5029775;28;20049;-62
2023/06/04 07:57:03;;;;;;;13.07;5.65;;;;;;;;;;4981059;28;20509;-63
2023/06/04 07:59:34;;;;;;;11.60;4.63;;;;;;;;;;5002622;28;20060;-62
2023/06/04 08:02:05;;;;;;;9.50;4.65;;;;;;;;;;5004970;28;20057;-62
2023/06/04 08:04:35;;;;;;;11.32;5.43;;;;;;;;;;5071766;28;20048;-63
2023/06/04 08:07:06;;;;;;;11.60;5.18;;;;;;;;;;5072112;28;20036;-63
2023/06/04 08:09:36;;;;;;;12.60;5.22;;;;;;;;;;5036464;28;20060;-62
2023/06/04 08:12:06;;;;;;;10.73;5.18;;;;;;;;;;5036670;28;20057;-62
2023/06/04 08:14:38;;;;;;;14.43;5.32;;;;;;;;;;5054000;28;20056;-62
2023/06/04 08:17:10;;;;;;;14.13;5.47;;;;;;;;;;5072103;28;20048;-64
2023/06/04 08:19:40;;;;;;;11.73;5.68;;;;;;;;;;5071886;28;20040;-62
2023/06/04 08:22:11;;;;;;;12.82;5.72;;;;;;;;;;5069725;28;20049;-63
2023/06/04 08:24:41;;;;;;;13.88;6.35;;;;;;;;;;5053240;28;20056;-63
2023/06/04 08:27:12;;;;;;;13.90;5.93;;;;;;;;;;5071596;28;20040;-63
2023/06/04 08:29:42;;;;;;;14.38;6.07;;;;;;;;;;5071286;28;20061;-63
2023/06/04 08:32:12;;;;;;;14.18;6.43;;;;;;;;;;5071725;28;20048;-63
2023/06/04 08:34:43;;;;;;;13.48;5.95;;;;;;;;;;5071504;28;20045;-62
2023/06/04 08:37:13;;;;;;;18.08;6.50;;;;;;;;;;5071581;28;20809;-63
2023/06/04 08:39:43;;;;;;;15.88;6.93;;;;;;;;;;5052756;28;20055;-62
2023/06/04 08:42:37;;;;;;;15.27;6.45;;;;;;;;;;5071678;28;20041;-63
2023/06/04 08:45:12;;;;;;;14.40;6.30;;;;;;;;;;5071140;28;20037;-63
2023/06/04 08:47:49;;;;;;;15.95;6.40;;;;;;;;;;5070752;28;20045;-63
2023/06/04 08:50:25;;;;;;;15.40;6.10;;;;;;;;;;5036074;28;20048;-63
2023/06/04 08:52:56;;;;;;;18.05;6.90;;;;;;;;;;5071391;28;20052;-64
2023/06/04 08:55:27;;;;;;;16.95;7.18;;;;;;;;;;5071501;28;20044;-63
2023/06/04 08:57:57;;;;;;;18.73;6.78;;;;;;;;;;5035626;28;20060;-65
2023/06/04 09:00:27;;;;;;;16.08;6.78;;;;;;;;;;5036541;28;20056;-63
2023/06/04 09:02:58;;;;;;;22.13;6.60;;;;;;;;;;5071460;28;20055;-63
2023/06/04 09:05:29;;;;;;;20.80;6.82;;;;;;;;;;5071182;28;20492;-62
2023/06/04 09:08:04;;;;;;;21.90;7.47;;;;;;;;;;5035987;28;20163;-63
2023/06/04 09:10:37;;;;;;;19.30;7.47;;;;;;;;;;5071187;28;20377;-62
2023/06/04 09:13:09;;;;;;;18.63;7.30;;;;;;;;;;5020061;28;20068;-64
2023/06/04 09:15:39;;;;;;;16.02;6.97;;;;;;;;;;5071444;28;20045;-62
2023/06/04 09:18:10;;;;;;;24.48;7.57;;;;;;;;;;5071059;28;20036;-64
2023/06/04 09:20:40;;;;;;;19.45;7.47;;;;;;;;;;5035769;28;20053;-63
2023/06/04 09:23:14;;;;;;;18.52;7.30;;;;;;;;;;5071469;28;20059;-62
2023/06/04 09:25:45;;;;;;;22.05;7.88;;;;;;;;;;4988514;28;20057;-63
2023/06/04 09:28:16;;;;;;;17.42;6.97;;;;;;;;;;5070774;28;20373;-63
2023/06/04 09:30:54;;;;;;;20.65;7.22;;;;;;;;;;5052497;28;20053;-63
2023/06/04 09:33:26;;;;;;;18.05;7.07;;;;;;;;;;5035485;28;20052;-62
2023/06/04 09:35:58;;;;;;;17.23;6.65;;;;;;;;;;5036492;28;20082;-63
2023/06/04 09:38:37;;;;;;;19.98;7.00;;;;;;;;;;5019190;28;20048;-63
2023/06/04 09:41:21;;;;;;;20.05;7.00;;;;;;;;;;5028559;28;20378;-63
2023/06/04 09:44:03;;;;;;;23.50;7.75;;;;;;;;;;4995797;28;21125;-63
2023/06/04 09:46:33;;;;;;;21.38;7.97;;;;;;;;;;5028574;28;20062;-62
2023/06/04 09:49:05;;;;;;;19.10;7.47;;;;;;;;;;4964210;28;20058;-62
2023/06/04 09:51:47;;;;;;;;;;;;;;;;;;5029222;28;20049;-63
2023/06/04 09:54:18;;;;;;;21.38;8.23;;;;;;;;;;4995750;28;19921;-63
2023/06/04 09:56:49;;;;;;;18.00;8.77;;;;;;;;;;4973278;28;20459;-64
2023/06/04 09:59:19;;;;;;;15.10;7.80;;;;;;;;;;4991053;28;20541;-64
2023/06/04 10:01:53;;;;;;;21.17;8.00;;;;;;;;;;4961351;28;20059;-62
2023/06/04 10:04:23;;;;;;;28.83;8.07;;;;;;;;;;4961427;28;20054;-65
2023/06/04 10:06:54;;;;;;;21.20;8.40;;;;;;;;;;4960823;28;20054;-63
2023/06/04 10:09:26;;;;;;;19.33;8.15;;;;;;;;;;4992320;28;20055;-63
2023/06/04 10:12:01;;;;;;;20.02;8.48;;;;;;;;;;4992463;28;20051;-63
2023/06/04 10:14:52;;;;;;;19.85;7.63;;;;;;;;;;4992479;28;20413;-64
2023/06/04 10:17:25;;;;;;;21.23;7.15;;;;;;;;;;4976330;28;20418;-63
2023/06/04 10:19:58;;;;;;;18.80;7.22;;;;;;;;;;5013671;28;20061;-62
2023/06/04 10:22:30;;;;;;;20.80;8.15;;;;;;;;;;5031539;28;20061;-62
2023/06/04 10:25:01;;;;;;;19.58;7.95;;;;;;;;;;5015422;28;20052;-62
2023/06/04 10:27:32;;;;;;;23.27;9.43;;;;;;;;;;4981782;28;20064;-63
2023/06/04 10:30:04;;;;;;;21.80;10.07;;;;;;;;;;5031393;28;20046;-62
2023/06/04 10:32:35;;;;;;;23.83;10.48;;;;;;;;;;5031325;28;20381;-63
2023/06/04 10:35:08;;;;;;;17.30;7.78;;;;;;;;;;5063554;28;20049;-62
2023/06/04 10:37:39;;;;;;;17.08;8.05;;;;;;;;;;5073316;28;20052;-62
2023/06/04 10:40:09;;;;;;;27.60;8.90;;;;;;;;;;5054555;28;20415;-62
2023/06/04 10:42:43;;;;;;;18.63;8.40;;;;;;;;;;5055137;28;20056;-62
2023/06/04 10:45:13;;;;;;;21.23;7.60;;;;;;;;;;5073706;28;20048;-62
2023/06/04 10:47:43;;;;;;;20.02;7.68;;;;;;;;;;5022720;28;20518;-62
2023/06/04 10:50:14;;;;;;;21.52;7.60;;;;;;;;;;5073335;28;20044;-63
2023/06/04 10:52:56;;;;;;;19.80;7.10;;;;;;;;;;5073465;28;20052;-62
2023/06/04 10:55:27;;;;;;;25.55;8.40;;;;;;;;;;5073379;28;20044;-62
2023/06/04 10:57:59;;;;;;;20.23;8.20;;;;;;;;;;5070759;28;20048;-63
2023/06/04 11:00:48;;;;;;;19.05;7.13;;;;;;;;;;5071136;28;20496;-62
2023/06/04 11:03:20;;;;;;;20.25;7.93;;;;;;;;;;5054119;28;20048;-63
2023/06/04 11:05:50;;;;;;;19.48;8.77;;;;;;;;;;5073149;28;20048;-63
2023/06/04 11:08:29;;;;;;;22.88;9.40;;;;;;;;;;5073046;28;20048;-63
2023/06/04 11:11:12;;;;;;;19.23;8.85;;;;;;;;;;5053242;28;20049;-64
2023/06/04 11:13:45;;;;;;;19.83;9.27;;;;;;;;;;5070953;28;20529;-64
2023/06/04 11:16:18;;;;;;;23.35;10.30;;;;;;;;;;5072846;28;20045;-63
2023/06/04 11:18:57;;;;;;;23.83;11.20;;;;;;;;;;5037606;28;20055;-64
2023/06/04 11:21:27;;;;;;;21.98;10.32;;;;;;;;;;5021355;28;20499;-63
2023/06/04 11:24:00;;;;;;;24.38;9.43;;;;;;;;;;5072603;28;20495;-64
2023/06/04 11:26:35;;;;;;;21.88;9.15;;;;;;;;;;5072568;28;20063;-62
2023/06/04 11:29:14;;;;;;;20.80;9.27;;;;;;;;;;5072549;28;20048;-63
2023/06/04 11:31:47;;;;;;;20.95;9.45;;;;;;;;;;5037182;28;20052;-63
2023/06/04 11:34:29;;;;;;;16.05;8.90;;;;;;;;;;5004783;28;20052;-63
2023/06/04 11:37:11;;;;;;;18.95;9.85;;;;;;;;;;5072560;28;20056;-62
2023/06/04 11:39:44;;;;;;;19.38;8.73;;;;;;;;;;5069778;28;20048;-62
2023/06/04 11:42:15;;;;;;;19.52;8.98;;;;;;;;;;5037219;28;20500;-63
2023/06/04 11:44:48;;;;;;;16.65;9.13;;;;;;;;;;5053709;28;20060;-62
2023/06/04 11:47:20;;;;;;;17.35;8.45;;;;;;;;;;5021749;28;20048;-62
2023/06/04 11:49:57;;;;;;;18.58;8.68;;;;;;;;;;5054668;28;20045;-63
2023/06/04 11:52:28;;;;;;;15.48;7.97;;;;;;;;;;5072290;28;20047;-63
2023/06/04 11:54:58;;;;;;;16.88;7.65;;;;;;;;;;5071952;28;20412;-62
2023/06/04 11:57:30;;;;;;;13.95;7.68;;;;;;;;;;5054749;28;20049;-63
2023/06/04 12:00:00;;;;;;;12.27;6.53;;;;;;;;;;5020089;28;20057;-62
2023/06/04 12:02:31;;;;;;;14.63;6.80;;;;;;;;;;5037786;28;20057;-64
2023/06/04 12:05:12;;;;;;;16.10;6.75;;;;;;;;;;5052973;28;20504;-64
2023/06/04 12:07:42;;;;;;;13.32;7.10;;;;;;;;;;5071853;28;20056;-61
2023/06/04 12:10:13;;;;;;;14.02;7.13;;;;;;;;;;5037216;28;20056;-61
2023/06/04 12:12:43;;;;;;;15.95;7.25;;;;;;;;;;5072191;28;20055;-62
2023/06/04 12:15:20;;;;;;;21.05;9.15;;;;;;;;;;5071564;28;20055;-62
2023/06/04 12:17:51;;;;;;;15.82;8.73;;;;;;;;;;5004618;28;20420;-63
2023/06/04 12:20:35;;;;;;;14.73;7.47;;;;;;;;;;5052693;28;20053;-63
2023/06/04 12:23:07;;;;;;;20.15;11.10;;;;;;;;;;5052826;28;20052;-63
2023/06/04 12:25:40;;;;;;;19.38;11.38;;;;;;;;;;5019944;28;20048;-63
2023/06/04 12:28:18;;;;;;;17.15;9.82;;;;;;;;;;5071611;28;20048;-63
2023/06/04 12:30:48;;;;;;;14.18;7.68;;;;;;;;;;5052666;28;20048;-63
2023/06/04 12:33:18;;;;;;;13.35;7.93;;;;;;;;;;5053020;28;20052;-63
2023/06/04 12:35:49;;;;;;;15.75;8.65;;;;;;;;;;5036662;28;20056;-63
2023/06/04 12:38:19;;;;;;;16.95;8.77;;;;;;;;;;5003395;28;20059;-63
2023/06/04 12:40:50;;;;;;;19.58;11.30;;;;;;;;;;5069120;28;20052;-63
2023/06/04 12:43:20;;;;;;;21.27;11.68;;;;;;;;;;5071581;28;20044;-64
2023/06/04 12:45:50;;;;;;;16.60;9.80;;;;;;;;;;5071323;28;20055;-63
2023/06/04 12:48:20;;;;;;;20.55;9.18;;;;;;;;;;5071128;28;20040;-63
2023/06/04 12:50:51;;;;;;;16.50;8.15;;;;;;;;;;5071188;28;20072;-63
2023/06/04 12:53:20;;;;;;;15.32;7.00;;;;;;;;;;5019394;28;20056;-63
2023/06/04 12:55:50;;;;;;;13.43;7.38;;;;;;;;;;5071068;28;20044;-63
2023/06/04 12:58:20;;;;;;;12.65;6.72;;;;;;;;;;5035791;28;20051;-63
2023/06/04 13:00:50;;;;;;;12.55;6.40;;;;;;;;;;5068783;28;20060;-63
2023/06/04 13:03:20;;;;;;;16.95;6.68;;;;;;;;;;5035303;28;20048;-63
2023/06/04 13:05:53;;;;;;;13.35;6.93;;;;;;;;;;5002709;28;20048;-63
2023/06/04 13:08:23;;;;;;;13.07;6.60;;;;;;;;;;5051999;28;20064;-63
2023/06/04 13:10:53;;;;;;;16.50;8.50;;;;;;;;;;5068697;28;20059;-63
2023/06/04 13:13:23;;;;;;;20.55;8.63;;;;;;;;;;5068646;28;20059;-63
2023/06/04 13:15:56;;;;;;;13.05;5.90;;;;;;;;;;5052403;28;20056;-63
2023/06/04 13:18:26;;;;;;;12.07;7.03;;;;;;;;;;5068530;28;20046;-63
2023/06/04 13:20:57;;;;;;;15.02;7.60;;;;;;;;;;5068426;28;20059;-64
2023/06/04 13:23:28;;;;;;;19.50;10.30;;;;;;;;;;5035400;28;20048;-63
2023/06/04 13:26:18;;;;;;;18.55;8.32;;;;;;;;;;5027967;28;20059;-63
2023/06/04 13:28:49;;;;;;;19.67;9.63;;;;;;;;;;5035721;28;20568;-63
2023/06/04 13:31:19;;;;;;;18.80;9.75;;;;;;;;;;5068472;28;20075;-64
2023/06/04 13:33:50;;;;;;;20.45;8.43;;;;;;;;;;5004452;28;20055;-63
2023/06/04 13:36:20;;;;;;;13.77;8.35;;;;;;;;;;5073535;28;20056;-63
2023/06/04 13:38:52;;;;;;;15.95;7.88;;;;;;;;;;5074807;28;20044;-63
2023/06/04 13:41:22;;;;;;;14.32;7.30;;;;;;;;;;5040373;28;20488;-63
2023/06/04 13:43:54;;;;;;;16.17;7.65;;;;;;;;;;5072511;28;20409;-63
2023/06/04 13:46:24;;;;;;;13.15;7.03;;;;;;;;;;5055273;28;20052;-63
2023/06/04 13:48:54;;;;;;;14.45;7.30;;;;;;;;;;5074728;28;20055;-63
2023/06/04 13:51:25;;;;;;;15.45;7.95;;;;;;;;;;5039075;28;20695;-62
2023/06/04 13:53:56;;;;;;;12.32;6.88;;;;;;;;;;5022868;28;20059;-63
2023/06/04 13:56:26;;;;;;;14.20;6.88;;;;;;;;;;5074528;28;20036;-62
2023/06/04 13:58:57;;;;;;;12.23;5.55;;;;;;;;;;5039852;28;20060;-63
2023/06/04 14:01:27;;;;;;;18.35;6.93;;;;;;;;;;5038839;28;20071;-63
2023/06/04 14:03:58;;;;;;;14.43;7.78;;;;;;;;;;5072272;28;20044;-63
2023/06/04 14:06:29;;;;;;;15.77;7.85;;;;;;;;;;5055086;28;20048;-62
2023/06/04 14:08:59;;;;;;;13.60;6.97;;;;;;;;;;5039101;28;20056;-63
2023/06/04 14:11:30;;;;;;;14.30;7.30;;;;;;;;;;5040023;28;20500;-63
2023/06/04 14:14:00;;;;;;;14.35;6.90;;;;;;;;;;5074351;28;20044;-63
2023/06/04 14:16:31;;;;;;;12.10;6.75;;;;;;;;;;5073991;28;20044;-63
2023/06/04 14:19:01;;;;;;;14.63;7.80;;;;;;;;;;5006393;28;20057;-63
2023/06/04 14:21:31;;;;;;;14.48;8.25;;;;;;;;;;5074119;28;20044;-63
2023/06/04 14:24:01;;;;;;;14.50;7.38;;;;;;;;;;5074066;28;20044;-63
2023/06/04 14:26:33;;;;;;;13.60;6.90;;;;;;;;;;5038412;28;20449;-63
2023/06/04 14:29:03;;;;;;;10.23;5.20;;;;;;;;;;5039290;28;20057;-63
2023/06/04 14:31:33;;;;;;;13.20;6.97;;;;;;;;;;5074213;28;20049;-63
2023/06/04 14:34:04;;;;;;;12.82;6.97;;;;;;;;;;5073953;28;20408;-63
2023/06/04 14:36:34;;;;;;;12.55;6.75;;;;;;;;;;5073603;28;20051;-63
2023/06/04 14:39:05;;;;;;;9.77;5.65;;;;;;;;;;5073784;28;20052;-64
2023/06/04 14:41:35;;;;;;;13.85;7.85;;;;;;;;;;5038464;28;20062;-63
2023/06/04 14:44:05;;;;;;;12.73;6.32;;;;;;;;;;5071424;28;20060;-63
2023/06/04 14:46:35;;;;;;;10.35;5.80;;;;;;;;;;5038022;28;20056;-63
2023/06/04 14:49:05;;;;;;;12.35;5.78;;;;;;;;;;5073708;28;20044;-63
2023/06/04 14:51:36;;;;;;;10.10;5.03;;;;;;;;;;5073312;28;20045;-63
2023/06/04 14:54:06;;;;;;;12.18;5.95;;;;;;;;;;5073403;28;20052;-63
2023/06/04 14:56:36;;;;;;;12.23;6.30;;;;;;;;;;5073095;28;20051;-63
2023/06/04 14:59:08;;;;;;;12.98;6.97;;;;;;;;;;5073796;28;20052;-63